createdAt,value
2018-11-22T19:50:54.097Z,59.20
2018-11-22T19:53:22.778Z,61.00
2018-11-22T19:55:51.338Z,62.10
2018-11-22T19:58:19.996Z,62.30
2018-11-22T20:00:48.604Z,61.90
2018-11-22T20:03:17.173Z,62.10
2018-11-22T20:05:45.941Z,62.30
2018-11-22T20:08:16.350Z,61.40
2018-11-22T20:10:45.889Z,60.90
2018-11-22T20:13:14.529Z,60.60
2018-11-22T20:15:43.124Z,59.70
2018-11-22T20:18:12.261Z,59.30
2018-11-22T20:20:41.701Z,58.90
2018-11-22T20:23:10.202Z,58.60
2018-11-22T20:25:38.803Z,58.30
2018-11-22T20:28:07.445Z,58.10
2018-11-22T20:30:38.837Z,57.60
2018-11-22T20:33:07.570Z,57.30
2018-11-22T20:35:36.221Z,57.00
2018-11-22T20:38:04.913Z,56.60
2018-11-22T20:40:33.601Z,56.20
2018-11-22T20:43:02.241Z,55.90
2018-11-22T20:45:31.995Z,55.70
2018-11-22T20:48:05.124Z,55.10
2018-11-22T20:50:35.380Z,55.30
2018-11-22T20:53:04.759Z,55.20
2018-11-22T20:55:34.857Z,55.40
2018-11-22T20:58:05.366Z,55.30
2018-11-22T21:00:35.554Z,55.80
2018-11-22T21:03:04.652Z,55.00
2018-11-22T21:05:33.217Z,55.30
2018-11-22T21:08:01.793Z,55.00
2018-11-22T21:10:31.852Z,55.10
2018-11-22T21:13:01.906Z,54.80
2018-11-22T21:15:32.302Z,54.80
2018-11-22T21:18:02.519Z,54.80
2018-11-22T21:20:32.956Z,54.80
2018-11-22T21:23:01.537Z,54.50
2018-11-22T21:25:30.234Z,54.50
2018-11-22T21:27:59.005Z,54.70
2018-11-22T21:30:31.077Z,54.40
2018-11-22T21:33:00.299Z,54.30
2018-11-22T21:35:29.180Z,54.40
2018-11-22T21:37:58.882Z,54.20
2018-11-22T21:40:28.414Z,54.60
2018-11-22T21:42:56.983Z,54.20
2018-11-22T21:45:26.383Z,54.10
2018-11-22T21:47:55.202Z,53.80
2018-11-22T21:50:25.335Z,53.60
2018-11-22T21:52:54.918Z,53.50
2018-11-22T21:55:24.857Z,53.40
2018-11-22T21:57:54.636Z,53.00
2018-11-22T22:00:27.097Z,53.50
2018-11-22T22:02:58.421Z,53.50
2018-11-22T22:05:27.168Z,54.30
2018-11-22T22:07:55.882Z,53.90
2018-11-22T22:10:24.476Z,53.90
2018-11-22T22:12:53.201Z,53.60
2018-11-22T22:15:23.380Z,53.70
2018-11-22T22:17:52.615Z,53.40
2018-11-22T22:20:22.802Z,53.30
2018-11-22T22:22:51.345Z,53.20
2018-11-22T22:25:21.249Z,53.00
2018-11-22T22:27:50.424Z,52.40
2018-11-22T22:30:20.428Z,52.80
2018-11-22T22:32:50.139Z,52.70
2018-11-22T22:35:18.911Z,52.80
2018-11-22T22:37:48.070Z,52.80
2018-11-22T22:40:19.265Z,52.60
2018-11-22T22:42:48.797Z,52.50
2018-11-22T22:45:18.507Z,52.70
2018-11-22T22:47:48.322Z,52.50
2018-11-22T22:50:24.991Z,52.70
2018-11-22T22:52:55.836Z,52.90
2018-11-22T22:55:24.698Z,52.70
2018-11-22T22:57:53.247Z,52.70
2018-11-22T23:00:30.296Z,52.70
2018-11-22T23:03:03.251Z,52.70
2018-11-22T23:05:32.470Z,52.60
2018-11-22T23:08:01.067Z,52.60
2018-11-22T23:10:29.692Z,52.50
2018-11-22T23:12:59.248Z,52.70
2018-11-22T23:15:28.671Z,52.70
2018-11-22T23:17:57.189Z,52.70
2018-11-22T23:20:32.320Z,52.60
2018-11-22T23:23:00.995Z,52.80
2018-11-22T23:25:30.486Z,52.80
2018-11-22T23:27:59.098Z,52.60
2018-11-22T23:30:29.869Z,52.60
2018-11-22T23:32:59.861Z,52.80
2018-11-22T23:35:28.432Z,52.70
2018-11-22T23:37:57.429Z,53.50
2018-11-22T23:40:27.450Z,53.00
2018-11-22T23:42:56.409Z,53.10
2018-11-22T23:45:27.103Z,53.10
2018-11-22T23:47:55.793Z,53.00
2018-11-22T23:50:25.788Z,53.20
2018-11-22T23:52:55.507Z,52.90
2018-11-22T23:55:24.270Z,52.90
2018-11-22T23:57:53.071Z,52.70
